sensor_id;sensor_type;location;lat;lon;timestamp;temperature;humidity
68354;DHT22;55274;43.060;25.618;2023-05-10T00:00:33;10.80;99.90
68354;DHT22;55274;43.060;25.618;2023-05-10T00:02:59;10.80;99.90
68354;DHT22;55274;43.060;25.618;2023-05-10T00:05:25;10.80;99.90
68354;DHT22;55274;43.060;25.618;2023-05-10T00:07:51;10.80;99.90
68354;DHT22;55274;43.060;25.618;2023-05-10T00:10:16;10.80;99.90
68354;DHT22;55274;43.060;25.618;2023-05-10T00:12:42;10.80;99.90
68354;DHT22;55274;43.060;25.618;2023-05-10T00:15:09;10.70;99.90
68354;DHT22;55274;43.060;25.618;2023-05-10T00:17:35;10.80;99.90
68354;DHT22;55274;43.060;25.618;2023-05-10T00:20:00;10.80;99.90
68354;DHT22;55274;43.060;25.618;2023-05-10T00:22:26;10.80;99.90
68354;DHT22;55274;43.060;25.618;2023-05-10T00:24:52;10.80;99.90
68354;DHT22;55274;43.060;25.618;2023-05-10T00:27:17;10.70;99.90
68354;DHT22;55274;43.060;25.618;2023-05-10T00:29:43;10.70;99.90
68354;DHT22;55274;43.060;25.618;2023-05-10T00:32:09;10.70;99.90
68354;DHT22;55274;43.060;25.618;2023-05-10T00:34:35;10.70;99.90
68354;DHT22;55274;43.060;25.618;2023-05-10T00:37:00;10.70;99.90
68354;DHT22;55274;43.060;25.618;2023-05-10T00:39:26;10.70;99.90
68354;DHT22;55274;43.060;25.618;2023-05-10T00:41:54;10.70;99.90
68354;DHT22;55274;43.060;25.618;2023-05-10T00:44:20;10.70;99.90
68354;DHT22;55274;43.060;25.618;2023-05-10T00:46:46;10.60;99.90
68354;DHT22;55274;43.060;25.618;2023-05-10T00:49:12;10.60;99.90
68354;DHT22;55274;43.060;25.618;2023-05-10T00:51:38;10.50;99.90
68354;DHT22;55274;43.060;25.618;2023-05-10T00:54:04;10.50;99.90
68354;DHT22;55274;43.060;25.618;2023-05-10T00:56:30;10.40;99.90
68354;DHT22;55274;43.060;25.618;2023-05-10T00:58:56;10.40;99.90
68354;DHT22;55274;43.060;25.618;2023-05-10T01:01:22;10.40;99.90
68354;DHT22;55274;43.060;25.618;2023-05-10T01:03:48;10.40;99.90
68354;DHT22;55274;43.060;25.618;2023-05-10T01:06:14;10.30;99.90
68354;DHT22;55274;43.060;25.618;2023-05-10T01:08:40;10.30;99.90
68354;DHT22;55274;43.060;25.618;2023-05-10T01:11:06;10.30;99.90
68354;DHT22;55274;43.060;25.618;2023-05-10T01:13:41;10.30;99.90
68354;DHT22;55274;43.060;25.618;2023-05-10T01:16:07;10.20;99.90
68354;DHT22;55274;43.060;25.618;2023-05-10T01:18:38;10.20;99.90
68354;DHT22;55274;43.060;25.618;2023-05-10T01:23:47;10.20;99.90
68354;DHT22;55274;43.060;25.618;2023-05-10T01:29:23;10.10;99.90
68354;DHT22;55274;43.060;25.618;2023-05-10T01:35:07;10.10;99.90
68354;DHT22;55274;43.060;25.618;2023-05-10T01:38:01;10.00;99.90
68354;DHT22;55274;43.060;25.618;2023-05-10T01:41:24;10.00;99.90
68354;DHT22;55274;43.060;25.618;2023-05-10T01:43:28;10.00;99.90
68354;DHT22;55274;43.060;25.618;2023-05-10T01:46:02;9.90;99.90
68354;DHT22;55274;43.060;25.618;2023-05-10T01:48:38;9.90;99.90
68354;DHT22;55274;43.060;25.618;2023-05-10T01:51:06;9.90;99.90
68354;DHT22;55274;43.060;25.618;2023-05-10T01:53:36;9.80;99.90
68354;DHT22;55274;43.060;25.618;2023-05-10T01:56:03;9.80;99.90
68354;DHT22;55274;43.060;25.618;2023-05-10T01:58:31;9.80;99.90
68354;DHT22;55274;43.060;25.618;2023-05-10T02:01:00;9.80;99.90
68354;DHT22;55274;43.060;25.618;2023-05-10T02:03:27;9.80;99.90
68354;DHT22;55274;43.060;25.618;2023-05-10T02:05:54;9.70;99.90
68354;DHT22;55274;43.060;25.618;2023-05-10T02:08:22;9.70;99.90
68354;DHT22;55274;43.060;25.618;2023-05-10T02:10:51;9.70;99.90
68354;DHT22;55274;43.060;25.618;2023-05-10T02:13:18;9.70;99.90
68354;DHT22;55274;43.060;25.618;2023-05-10T02:15:46;9.80;99.90
68354;DHT22;55274;43.060;25.618;2023-05-10T02:18:14;9.80;99.90
68354;DHT22;55274;43.060;25.618;2023-05-10T02:20:42;9.70;99.90
68354;DHT22;55274;43.060;25.618;2023-05-10T02:23:09;9.70;99.90
68354;DHT22;55274;43.060;25.618;2023-05-10T02:25:37;9.60;99.90
68354;DHT22;55274;43.060;25.618;2023-05-10T02:28:06;9.70;99.90
68354;DHT22;55274;43.060;25.618;2023-05-10T02:30:33;9.60;99.90
68354;DHT22;55274;43.060;25.618;2023-05-10T02:33:01;9.50;99.90
68354;DHT22;55274;43.060;25.618;2023-05-10T02:35:28;9.50;99.90
68354;DHT22;55274;43.060;25.618;2023-05-10T02:37:56;9.50;99.90
68354;DHT22;55274;43.060;25.618;2023-05-10T02:40:24;9.30;99.90
68354;DHT22;55274;43.060;25.618;2023-05-10T02:42:54;9.30;99.90
68354;DHT22;55274;43.060;25.618;2023-05-10T02:45:23;9.30;99.90
68354;DHT22;55274;43.060;25.618;2023-05-10T02:47:50;9.40;99.90
68354;DHT22;55274;43.060;25.618;2023-05-10T02:50:16;9.30;99.90
68354;DHT22;55274;43.060;25.618;2023-05-10T02:52:50;9.30;99.90
68354;DHT22;55274;43.060;25.618;2023-05-10T02:55:19;9.30;99.90
68354;DHT22;55274;43.060;25.618;2023-05-10T02:57:51;9.20;99.90
68354;DHT22;55274;43.060;25.618;2023-05-10T03:00:17;9.20;99.90
68354;DHT22;55274;43.060;25.618;2023-05-10T03:02:43;9.10;99.90
68354;DHT22;55274;43.060;25.618;2023-05-10T03:05:09;9.10;99.90
68354;DHT22;55274;43.060;25.618;2023-05-10T03:07:35;9.10;99.90
68354;DHT22;55274;43.060;25.618;2023-05-10T03:10:01;9.00;99.90
68354;DHT22;55274;43.060;25.618;2023-05-10T03:18:09;9.00;99.90
68354;DHT22;55274;43.060;25.618;2023-05-10T03:20:38;9.00;99.90
68354;DHT22;55274;43.060;25.618;2023-05-10T03:23:21;9.00;99.90
68354;DHT22;55274;43.060;25.618;2023-05-10T03:25:48;9.00;99.90
68354;DHT22;55274;43.060;25.618;2023-05-10T03:28:16;8.90;99.90
68354;DHT22;55274;43.060;25.618;2023-05-10T03:30:43;8.90;99.90
68354;DHT22;55274;43.060;25.618;2023-05-10T03:33:10;8.90;99.90
68354;DHT22;55274;43.060;25.618;2023-05-10T03:35:36;8.80;99.90
68354;DHT22;55274;43.060;25.618;2023-05-10T03:38:02;8.90;99.90
68354;DHT22;55274;43.060;25.618;2023-05-10T03:40:28;8.90;99.90
68354;DHT22;55274;43.060;25.618;2023-05-10T03:42:57;8.90;99.90
68354;DHT22;55274;43.060;25.618;2023-05-10T03:45:23;8.80;99.90
68354;DHT22;55274;43.060;25.618;2023-05-10T03:47:48;8.90;99.90
68354;DHT22;55274;43.060;25.618;2023-05-10T03:50:14;8.90;99.90
68354;DHT22;55274;43.060;25.618;2023-05-10T03:52:40;8.90;99.90
68354;DHT22;55274;43.060;25.618;2023-05-10T03:55:06;9.00;99.90
68354;DHT22;55274;43.060;25.618;2023-05-10T03:57:33;9.20;99.90
68354;DHT22;55274;43.060;25.618;2023-05-10T03:59:59;9.20;99.90
68354;DHT22;55274;43.060;25.618;2023-05-10T04:02:25;9.30;99.90
68354;DHT22;55274;43.060;25.618;2023-05-10T04:04:51;9.40;99.90
68354;DHT22;55274;43.060;25.618;2023-05-10T04:07:17;9.50;99.90
68354;DHT22;55274;43.060;25.618;2023-05-10T04:09:43;9.40;99.90
68354;DHT22;55274;43.060;25.618;2023-05-10T04:12:09;9.50;99.90
68354;DHT22;55274;43.060;25.618;2023-05-10T04:14:35;9.40;99.90
68354;DHT22;55274;43.060;25.618;2023-05-10T04:17:01;9.50;99.90
68354;DHT22;55274;43.060;25.618;2023-05-10T04:19:30;9.80;99.90
68354;DHT22;55274;43.060;25.618;2023-05-10T04:21:56;10.50;99.90
68354;DHT22;55274;43.060;25.618;2023-05-10T04:24:22;11.20;99.90
68354;DHT22;55274;43.060;25.618;2023-05-10T04:26:47;12.00;99.90
68354;DHT22;55274;43.060;25.618;2023-05-10T04:29:13;12.70;99.90
68354;DHT22;55274;43.060;25.618;2023-05-10T04:31:39;13.20;99.90
68354;DHT22;55274;43.060;25.618;2023-05-10T04:34:04;13.40;99.90
68354;DHT22;55274;43.060;25.618;2023-05-10T04:36:30;13.40;99.90
68354;DHT22;55274;43.060;25.618;2023-05-10T04:38:58;13.80;99.90
68354;DHT22;55274;43.060;25.618;2023-05-10T04:41:23;14.50;99.90
68354;DHT22;55274;43.060;25.618;2023-05-10T04:43:50;15.30;99.90
68354;DHT22;55274;43.060;25.618;2023-05-10T04:46:16;16.20;94.30
68354;DHT22;55274;43.060;25.618;2023-05-10T04:48:42;16.90;91.90
68354;DHT22;55274;43.060;25.618;2023-05-10T04:51:08;17.50;86.70
68354;DHT22;55274;43.060;25.618;2023-05-10T04:53:34;17.50;83.90
68354;DHT22;55274;43.060;25.618;2023-05-10T04:56:00;18.40;81.20
68354;DHT22;55274;43.060;25.618;2023-05-10T04:58:26;19.00;75.70
68354;DHT22;55274;43.060;25.618;2023-05-10T05:00:51;19.20;75.00
68354;DHT22;55274;43.060;25.618;2023-05-10T05:03:17;19.90;72.40
68354;DHT22;55274;43.060;25.618;2023-05-10T05:05:43;20.40;66.10
68354;DHT22;55274;43.060;25.618;2023-05-10T05:08:10;20.60;64.10
68354;DHT22;55274;43.060;25.618;2023-05-10T05:10:35;21.40;63.80
68354;DHT22;55274;43.060;25.618;2023-05-10T05:13:01;22.10;58.60
68354;DHT22;55274;43.060;25.618;2023-05-10T05:15:27;22.20;58.20
68354;DHT22;55274;43.060;25.618;2023-05-10T05:17:53;22.40;56.40
68354;DHT22;55274;43.060;25.618;2023-05-10T05:20:18;22.50;56.00
68354;DHT22;55274;43.060;25.618;2023-05-10T05:22:44;22.20;57.40
68354;DHT22;55274;43.060;25.618;2023-05-10T05:25:11;22.10;57.70
68354;DHT22;55274;43.060;25.618;2023-05-10T05:27:38;22.10;57.70
68354;DHT22;55274;43.060;25.618;2023-05-10T05:30:04;22.40;56.50
68354;DHT22;55274;43.060;25.618;2023-05-10T05:32:30;22.60;55.20
68354;DHT22;55274;43.060;25.618;2023-05-10T05:34:56;22.30;54.30
68354;DHT22;55274;43.060;25.618;2023-05-10T05:37:22;22.40;53.00
68354;DHT22;55274;43.060;25.618;2023-05-10T05:39:48;22.60;52.80
68354;DHT22;55274;43.060;25.618;2023-05-10T05:42:14;22.00;52.70
68354;DHT22;55274;43.060;25.618;2023-05-10T05:44:41;22.00;53.40
68354;DHT22;55274;43.060;25.618;2023-05-10T05:47:07;22.00;52.80
68354;DHT22;55274;43.060;25.618;2023-05-10T05:49:33;21.30;52.80
68354;DHT22;55274;43.060;25.618;2023-05-10T05:51:59;21.20;53.70
68354;DHT22;55274;43.060;25.618;2023-05-10T05:54:26;21.20;54.40
68354;DHT22;55274;43.060;25.618;2023-05-10T05:56:59;21.10;51.50
68354;DHT22;55274;43.060;25.618;2023-05-10T05:59:25;20.70;52.10
68354;DHT22;55274;43.060;25.618;2023-05-10T06:01:51;20.20;53.10
68354;DHT22;55274;43.060;25.618;2023-05-10T06:04:17;20.00;54.90
68354;DHT22;55274;43.060;25.618;2023-05-10T06:06:43;19.60;54.50
68354;DHT22;55274;43.060;25.618;2023-05-10T06:09:09;19.20;55.30
68354;DHT22;55274;43.060;25.618;2023-05-10T06:11:35;18.70;55.10
68354;DHT22;55274;43.060;25.618;2023-05-10T06:14:01;18.20;56.20
68354;DHT22;55274;43.060;25.618;2023-05-10T06:16:27;17.80;57.00
68354;DHT22;55274;43.060;25.618;2023-05-10T06:18:53;17.60;58.90
68354;DHT22;55274;43.060;25.618;2023-05-10T06:21:19;17.30;58.40
68354;DHT22;55274;43.060;25.618;2023-05-10T06:23:45;17.20;58.70
68354;DHT22;55274;43.060;25.618;2023-05-10T06:28:46;17.40;60.90
68354;DHT22;55274;43.060;25.618;2023-05-10T06:31:11;17.40;59.80
68354;DHT22;55274;43.060;25.618;2023-05-10T06:33:37;17.30;59.20
68354;DHT22;55274;43.060;25.618;2023-05-10T06:36:03;17.20;58.80
68354;DHT22;55274;43.060;25.618;2023-05-10T06:38:29;17.20;57.40
68354;DHT22;55274;43.060;25.618;2023-05-10T06:40:55;17.20;58.50
68354;DHT22;55274;43.060;25.618;2023-05-10T06:43:21;17.00;58.40
68354;DHT22;55274;43.060;25.618;2023-05-10T06:45:48;17.00;58.90
68354;DHT22;55274;43.060;25.618;2023-05-10T06:48:14;17.30;58.00
68354;DHT22;55274;43.060;25.618;2023-05-10T06:50:39;16.80;58.90
68354;DHT22;55274;43.060;25.618;2023-05-10T06:53:05;17.00;58.40
68354;DHT22;55274;43.060;25.618;2023-05-10T06:55:31;17.10;58.90
68354;DHT22;55274;43.060;25.618;2023-05-10T06:57:57;17.10;58.50
68354;DHT22;55274;43.060;25.618;2023-05-10T07:00:22;17.20;58.40
68354;DHT22;55274;43.060;25.618;2023-05-10T07:02:48;17.40;58.70
68354;DHT22;55274;43.060;25.618;2023-05-10T07:05:14;17.50;57.70
68354;DHT22;55274;43.060;25.618;2023-05-10T07:07:40;17.40;58.30
68354;DHT22;55274;43.060;25.618;2023-05-10T07:10:06;17.50;58.60
68354;DHT22;55274;43.060;25.618;2023-05-10T07:12:33;17.50;58.10
68354;DHT22;55274;43.060;25.618;2023-05-10T07:14:59;17.30;58.40
68354;DHT22;55274;43.060;25.618;2023-05-10T07:17:24;17.60;60.00
68354;DHT22;55274;43.060;25.618;2023-05-10T07:19:50;17.90;58.80
68354;DHT22;55274;43.060;25.618;2023-05-10T07:22:16;18.00;58.80
68354;DHT22;55274;43.060;25.618;2023-05-10T07:24:42;18.10;57.10
68354;DHT22;55274;43.060;25.618;2023-05-10T07:27:08;18.40;56.60
68354;DHT22;55274;43.060;25.618;2023-05-10T07:29:35;18.50;56.70
68354;DHT22;55274;43.060;25.618;2023-05-10T07:32:00;18.30;56.40
68354;DHT22;55274;43.060;25.618;2023-05-10T07:34:26;18.40;56.50
68354;DHT22;55274;43.060;25.618;2023-05-10T07:36:53;18.60;56.20
68354;DHT22;55274;43.060;25.618;2023-05-10T07:39:19;18.90;55.80
68354;DHT22;55274;43.060;25.618;2023-05-10T07:41:46;18.90;55.30
68354;DHT22;55274;43.060;25.618;2023-05-10T07:44:12;18.80;54.50
68354;DHT22;55274;43.060;25.618;2023-05-10T07:46:38;19.30;55.10
68354;DHT22;55274;43.060;25.618;2023-05-10T07:49:03;19.70;53.90
68354;DHT22;55274;43.060;25.618;2023-05-10T07:51:29;19.70;54.40
68354;DHT22;55274;43.060;25.618;2023-05-10T07:53:55;19.90;52.50
68354;DHT22;55274;43.060;25.618;2023-05-10T07:56:27;19.50;52.90
68354;DHT22;55274;43.060;25.618;2023-05-10T07:59:04;19.30;53.20
68354;DHT22;55274;43.060;25.618;2023-05-10T08:01:33;19.70;52.80
68354;DHT22;55274;43.060;25.618;2023-05-10T08:03:59;19.60;51.70
68354;DHT22;55274;43.060;25.618;2023-05-10T08:06:25;19.10;52.90
68354;DHT22;55274;43.060;25.618;2023-05-10T08:08:53;19.70;50.90
68354;DHT22;55274;43.060;25.618;2023-05-10T08:11:23;20.40;49.60
68354;DHT22;55274;43.060;25.618;2023-05-10T08:13:49;20.80;49.00
68354;DHT22;55274;43.060;25.618;2023-05-10T08:16:16;20.80;49.10
68354;DHT22;55274;43.060;25.618;2023-05-10T08:18:44;21.20;50.20
68354;DHT22;55274;43.060;25.618;2023-05-10T08:21:10;21.30;48.10
68354;DHT22;55274;43.060;25.618;2023-05-10T08:23:37;21.50;47.90
68354;DHT22;55274;43.060;25.618;2023-05-10T08:26:03;21.20;48.90
68354;DHT22;55274;43.060;25.618;2023-05-10T08:28:28;20.90;48.50
68354;DHT22;55274;43.060;25.618;2023-05-10T08:30:55;21.20;47.10
68354;DHT22;55274;43.060;25.618;2023-05-10T08:33:21;21.50;46.80
68354;DHT22;55274;43.060;25.618;2023-05-10T08:35:46;21.50;46.50
68354;DHT22;55274;43.060;25.618;2023-05-10T08:38:12;21.20;47.80
68354;DHT22;55274;43.060;25.618;2023-05-10T08:40:43;21.30;49.80
68354;DHT22;55274;43.060;25.618;2023-05-10T08:43:11;21.40;48.00
68354;DHT22;55274;43.060;25.618;2023-05-10T08:45:42;21.30;49.30
68354;DHT22;55274;43.060;25.618;2023-05-10T08:48:09;21.70;49.60
68354;DHT22;55274;43.060;25.618;2023-05-10T08:50:39;22.10;46.90
68354;DHT22;55274;43.060;25.618;2023-05-10T08:53:13;22.20;45.80
68354;DHT22;55274;43.060;25.618;2023-05-10T08:55:40;22.80;46.20
68354;DHT22;55274;43.060;25.618;2023-05-10T08:58:08;22.20;45.80
68354;DHT22;55274;43.060;25.618;2023-05-10T09:00:34;21.80;46.30
68354;DHT22;55274;43.060;25.618;2023-05-10T09:03:02;21.30;45.50
68354;DHT22;55274;43.060;25.618;2023-05-10T09:05:28;21.40;46.50
68354;DHT22;55274;43.060;25.618;2023-05-10T09:07:54;21.50;46.40
68354;DHT22;55274;43.060;25.618;2023-05-10T09:10:20;21.50;47.00
68354;DHT22;55274;43.060;25.618;2023-05-10T09:12:48;21.50;44.70
68354;DHT22;55274;43.060;25.618;2023-05-10T09:15:18;21.20;46.70
68354;DHT22;55274;43.060;25.618;2023-05-10T09:17:46;21.40;47.20
68354;DHT22;55274;43.060;25.618;2023-05-10T09:20:12;21.00;48.20
68354;DHT22;55274;43.060;25.618;2023-05-10T09:22:38;21.30;47.50
68354;DHT22;55274;43.060;25.618;2023-05-10T09:25:14;21.40;46.60
68354;DHT22;55274;43.060;25.618;2023-05-10T09:27:43;21.60;47.40
68354;DHT22;55274;43.060;25.618;2023-05-10T09:30:14;20.90;46.90
68354;DHT22;55274;43.060;25.618;2023-05-10T09:32:46;20.30;48.80
68354;DHT22;55274;43.060;25.618;2023-05-10T09:35:20;20.70;48.70
68354;DHT22;55274;43.060;25.618;2023-05-10T09:37:49;20.80;47.00
68354;DHT22;55274;43.060;25.618;2023-05-10T09:40:20;20.30;47.20
68354;DHT22;55274;43.060;25.618;2023-05-10T09:42:58;20.70;48.30
68354;DHT22;55274;43.060;25.618;2023-05-10T09:45:27;20.80;46.70
68354;DHT22;55274;43.060;25.618;2023-05-10T09:47:53;21.20;45.30
68354;DHT22;55274;43.060;25.618;2023-05-10T09:50:20;21.40;44.50
68354;DHT22;55274;43.060;25.618;2023-05-10T09:52:52;21.50;44.80
68354;DHT22;55274;43.060;25.618;2023-05-10T09:55:38;20.90;46.50
68354;DHT22;55274;43.060;25.618;2023-05-10T09:58:04;21.60;45.30
68354;DHT22;55274;43.060;25.618;2023-05-10T10:00:36;22.00;45.20
68354;DHT22;55274;43.060;25.618;2023-05-10T10:03:03;21.70;44.90
68354;DHT22;55274;43.060;25.618;2023-05-10T10:05:30;20.70;46.50
68354;DHT22;55274;43.060;25.618;2023-05-10T10:07:57;20.30;47.70
68354;DHT22;55274;43.060;25.618;2023-05-10T10:10:27;20.60;46.00
68354;DHT22;55274;43.060;25.618;2023-05-10T10:12:54;20.90;47.20
68354;DHT22;55274;43.060;25.618;2023-05-10T10:15:21;21.00;45.80
68354;DHT22;55274;43.060;25.618;2023-05-10T10:17:48;20.90;47.40
68354;DHT22;55274;43.060;25.618;2023-05-10T10:20:14;20.40;46.30
68354;DHT22;55274;43.060;25.618;2023-05-10T10:22:40;21.00;47.20
68354;DHT22;55274;43.060;25.618;2023-05-10T10:25:08;21.80;44.20
68354;DHT22;55274;43.060;25.618;2023-05-10T10:30:39;20.90;45.60
68354;DHT22;55274;43.060;25.618;2023-05-10T10:35:39;20.40;46.60
68354;DHT22;55274;43.060;25.618;2023-05-10T10:38:08;20.10;48.10
68354;DHT22;55274;43.060;25.618;2023-05-10T10:40:34;20.00;47.80
68354;DHT22;55274;43.060;25.618;2023-05-10T10:43:21;19.90;48.80
68354;DHT22;55274;43.060;25.618;2023-05-10T10:46:15;19.90;48.60
68354;DHT22;55274;43.060;25.618;2023-05-10T10:49:09;20.40;47.30
68354;DHT22;55274;43.060;25.618;2023-05-10T10:51:39;20.40;47.60
68354;DHT22;55274;43.060;25.618;2023-05-10T10:54:11;20.30;47.00
68354;DHT22;55274;43.060;25.618;2023-05-10T10:56:37;20.30;47.40
68354;DHT22;55274;43.060;25.618;2023-05-10T10:59:03;20.00;46.80
68354;DHT22;55274;43.060;25.618;2023-05-10T11:01:35;19.90;47.10
68354;DHT22;55274;43.060;25.618;2023-05-10T11:06:30;19.60;47.50
68354;DHT22;55274;43.060;25.618;2023-05-10T11:09:09;19.70;48.50
68354;DHT22;55274;43.060;25.618;2023-05-10T11:11:36;19.70;47.00
68354;DHT22;55274;43.060;25.618;2023-05-10T11:14:13;19.40;48.70
68354;DHT22;55274;43.060;25.618;2023-05-10T11:16:43;19.40;49.50
68354;DHT22;55274;43.060;25.618;2023-05-10T11:19:11;19.20;50.20
68354;DHT22;55274;43.060;25.618;2023-05-10T11:24:20;19.40;50.60
68354;DHT22;55274;43.060;25.618;2023-05-10T11:26:50;19.70;51.50
68354;DHT22;55274;43.060;25.618;2023-05-10T11:29:17;19.70;49.30
68354;DHT22;55274;43.060;25.618;2023-05-10T11:31:44;19.90;50.60
68354;DHT22;55274;43.060;25.618;2023-05-10T11:34:11;19.70;50.90
68354;DHT22;55274;43.060;25.618;2023-05-10T11:36:37;19.40;50.70
68354;DHT22;55274;43.060;25.618;2023-05-10T11:39:03;19.40;51.00
68354;DHT22;55274;43.060;25.618;2023-05-10T11:41:31;19.50;50.90
68354;DHT22;55274;43.060;25.618;2023-05-10T11:43:57;20.00;51.40
68354;DHT22;55274;43.060;25.618;2023-05-10T11:46:26;20.30;50.40
68354;DHT22;55274;43.060;25.618;2023-05-10T11:48:58;20.30;49.80
68354;DHT22;55274;43.060;25.618;2023-05-10T11:51:26;20.20;49.90
68354;DHT22;55274;43.060;25.618;2023-05-10T11:53:55;20.40;49.60
68354;DHT22;55274;43.060;25.618;2023-05-10T11:56:22;20.30;48.70
68354;DHT22;55274;43.060;25.618;2023-05-10T11:58:56;20.30;49.40
68354;DHT22;55274;43.060;25.618;2023-05-10T12:01:23;20.20;50.10
68354;DHT22;55274;43.060;25.618;2023-05-10T12:03:50;20.10;49.60
68354;DHT22;55274;43.060;25.618;2023-05-10T12:06:18;20.00;48.80
68354;DHT22;55274;43.060;25.618;2023-05-10T12:08:46;20.30;50.80
68354;DHT22;55274;43.060;25.618;2023-05-10T12:11:12;20.60;48.60
68354;DHT22;55274;43.060;25.618;2023-05-10T12:13:40;21.00;47.90
68354;DHT22;55274;43.060;25.618;2023-05-10T12:16:23;21.50;48.00
68354;DHT22;55274;43.060;25.618;2023-05-10T12:18:53;21.90;47.40
68354;DHT22;55274;43.060;25.618;2023-05-10T12:21:22;22.10;46.90
68354;DHT22;55274;43.060;25.618;2023-05-10T12:23:51;22.30;46.60
68354;DHT22;55274;43.060;25.618;2023-05-10T12:26:17;22.30;47.90
68354;DHT22;55274;43.060;25.618;2023-05-10T12:28:42;22.50;46.40
68354;DHT22;55274;43.060;25.618;2023-05-10T12:31:09;22.10;47.10
68354;DHT22;55274;43.060;25.618;2023-05-10T12:33:42;21.70;47.90
68354;DHT22;55274;43.060;25.618;2023-05-10T12:36:09;21.80;48.30
68354;DHT22;55274;43.060;25.618;2023-05-10T12:38:43;21.50;48.30
68354;DHT22;55274;43.060;25.618;2023-05-10T12:41:10;21.00;47.70
68354;DHT22;55274;43.060;25.618;2023-05-10T12:43:37;20.80;49.00
68354;DHT22;55274;43.060;25.618;2023-05-10T12:46:22;20.40;50.60
68354;DHT22;55274;43.060;25.618;2023-05-10T12:48:50;20.30;50.80
68354;DHT22;55274;43.060;25.618;2023-05-10T12:51:20;20.20;50.20
68354;DHT22;55274;43.060;25.618;2023-05-10T12:53:47;19.90;50.40
68354;DHT22;55274;43.060;25.618;2023-05-10T12:56:13;19.70;51.00
68354;DHT22;55274;43.060;25.618;2023-05-10T12:58:39;19.50;51.00
68354;DHT22;55274;43.060;25.618;2023-05-10T13:01:05;19.40;51.70
68354;DHT22;55274;43.060;25.618;2023-05-10T13:03:31;19.40;52.20
68354;DHT22;55274;43.060;25.618;2023-05-10T13:05:56;19.30;52.60
68354;DHT22;55274;43.060;25.618;2023-05-10T13:08:22;19.20;53.20
68354;DHT22;55274;43.060;25.618;2023-05-10T13:10:48;18.90;53.00
68354;DHT22;55274;43.060;25.618;2023-05-10T13:13:14;18.80;53.50
68354;DHT22;55274;43.060;25.618;2023-05-10T13:15:40;18.70;54.00
68354;DHT22;55274;43.060;25.618;2023-05-10T13:18:06;18.50;54.70
68354;DHT22;55274;43.060;25.618;2023-05-10T13:20:32;18.50;54.50
68354;DHT22;55274;43.060;25.618;2023-05-10T13:22:57;18.40;54.90
68354;DHT22;55274;43.060;25.618;2023-05-10T13:25:23;18.40;55.00
68354;DHT22;55274;43.060;25.618;2023-05-10T13:27:49;18.30;55.10
68354;DHT22;55274;43.060;25.618;2023-05-10T13:30:15;18.10;56.00
68354;DHT22;55274;43.060;25.618;2023-05-10T13:32:41;18.20;55.60
68354;DHT22;55274;43.060;25.618;2023-05-10T13:35:07;18.00;55.30
68354;DHT22;55274;43.060;25.618;2023-05-10T13:37:33;18.00;56.20
68354;DHT22;55274;43.060;25.618;2023-05-10T13:40:03;17.90;56.60
68354;DHT22;55274;43.060;25.618;2023-05-10T13:42:29;17.90;56.30
68354;DHT22;55274;43.060;25.618;2023-05-10T13:44:57;17.80;56.60
68354;DHT22;55274;43.060;25.618;2023-05-10T13:47:22;17.70;56.60
68354;DHT22;55274;43.060;25.618;2023-05-10T13:49:48;17.70;57.20
68354;DHT22;55274;43.060;25.618;2023-05-10T13:52:14;17.80;57.10
68354;DHT22;55274;43.060;25.618;2023-05-10T13:54:40;17.80;56.90
68354;DHT22;55274;43.060;25.618;2023-05-10T13:57:06;17.80;56.90
68354;DHT22;55274;43.060;25.618;2023-05-10T13:59:32;17.90;57.00
68354;DHT22;55274;43.060;25.618;2023-05-10T14:01:58;17.90;57.00
68354;DHT22;55274;43.060;25.618;2023-05-10T14:04:24;18.00;56.70
68354;DHT22;55274;43.060;25.618;2023-05-10T14:06:50;17.90;56.30
68354;DHT22;55274;43.060;25.618;2023-05-10T14:09:16;17.90;56.70
68354;DHT22;55274;43.060;25.618;2023-05-10T14:11:42;17.80;56.90
68354;DHT22;55274;43.060;25.618;2023-05-10T14:14:09;17.90;56.70
68354;DHT22;55274;43.060;25.618;2023-05-10T14:16:35;17.80;56.30
68354;DHT22;55274;43.060;25.618;2023-05-10T14:19:01;17.90;56.60
68354;DHT22;55274;43.060;25.618;2023-05-10T14:21:27;17.90;56.20
68354;DHT22;55274;43.060;25.618;2023-05-10T14:23:55;18.00;56.30
68354;DHT22;55274;43.060;25.618;2023-05-10T14:26:21;18.00;56.50
68354;DHT22;55274;43.060;25.618;2023-05-10T14:28:47;18.10;56.10
68354;DHT22;55274;43.060;25.618;2023-05-10T14:31:13;18.20;55.60
68354;DHT22;55274;43.060;25.618;2023-05-10T14:33:40;18.20;55.70
68354;DHT22;55274;43.060;25.618;2023-05-10T14:36:06;18.20;55.20
68354;DHT22;55274;43.060;25.618;2023-05-10T14:38:32;18.00;55.60
68354;DHT22;55274;43.060;25.618;2023-05-10T14:40:58;18.10;55.70
68354;DHT22;55274;43.060;25.618;2023-05-10T14:43:24;18.10;55.70
68354;DHT22;55274;43.060;25.618;2023-05-10T14:45:50;18.10;55.80
68354;DHT22;55274;43.060;25.618;2023-05-10T14:48:16;18.30;55.60
68354;DHT22;55274;43.060;25.618;2023-05-10T14:50:43;18.50;54.90
68354;DHT22;55274;43.060;25.618;2023-05-10T14:53:34;18.20;53.60
68354;DHT22;55274;43.060;25.618;2023-05-10T14:56:00;18.30;53.60
68354;DHT22;55274;43.060;25.618;2023-05-10T14:58:28;18.20;53.90
68354;DHT22;55274;43.060;25.618;2023-05-10T15:00:55;18.20;53.70
68354;DHT22;55274;43.060;25.618;2023-05-10T15:03:22;18.30;53.60
68354;DHT22;55274;43.060;25.618;2023-05-10T15:05:47;18.30;53.10
68354;DHT22;55274;43.060;25.618;2023-05-10T15:08:13;18.30;54.00
68354;DHT22;55274;43.060;25.618;2023-05-10T15:10:40;18.20;54.80
68354;DHT22;55274;43.060;25.618;2023-05-10T15:13:05;18.10;54.30
68354;DHT22;55274;43.060;25.618;2023-05-10T15:15:31;18.10;54.10
68354;DHT22;55274;43.060;25.618;2023-05-10T15:17:57;18.10;54.30
68354;DHT22;55274;43.060;25.618;2023-05-10T15:20:22;18.10;54.10
68354;DHT22;55274;43.060;25.618;2023-05-10T15:22:48;18.10;54.20
68354;DHT22;55274;43.060;25.618;2023-05-10T15:25:14;18.20;54.60
68354;DHT22;55274;43.060;25.618;2023-05-10T15:27:41;18.30;54.60
68354;DHT22;55274;43.060;25.618;2023-05-10T15:30:09;18.30;55.40
68354;DHT22;55274;43.060;25.618;2023-05-10T15:32:35;18.20;55.20
68354;DHT22;55274;43.060;25.618;2023-05-10T15:35:01;18.20;55.40
68354;DHT22;55274;43.060;25.618;2023-05-10T15:37:27;18.10;55.70
68354;DHT22;55274;43.060;25.618;2023-05-10T15:39:53;18.10;55.80
68354;DHT22;55274;43.060;25.618;2023-05-10T15:42:19;18.10;56.00
68354;DHT22;55274;43.060;25.618;2023-05-10T15:44:45;18.00;55.70
68354;DHT22;55274;43.060;25.618;2023-05-10T15:47:15;18.00;56.20